sensor_id;sensor_type;location;lat;lon;timestamp;pressure;altitude;pressure_sealevel;temperature;humidity
66945;BME280;53853;51.982;5.928;2024-01-15T00:00:39;100174.03;;;3.71;84.83
66945;BME280;53853;51.982;5.928;2024-01-15T00:03:09;100172.47;;;3.69;84.78
66945;BME280;53853;51.982;5.928;2024-01-15T00:05:47;100162.88;;;3.68;85.05
66945;BME280;53853;51.982;5.928;2024-01-15T00:08:17;100159.78;;;3.62;85.06
66945;BME280;53853;51.982;5.928;2024-01-15T00:10:47;100161.47;;;3.63;85.19
66945;BME280;53853;51.982;5.928;2024-01-15T00:13:16;100160.59;;;3.63;85.07
66945;BME280;53853;51.982;5.928;2024-01-15T00:15:46;100155.69;;;3.58;85.21
66945;BME280;53853;51.982;5.928;2024-01-15T00:18:16;100157.75;;;3.55;85.22
66945;BME280;53853;51.982;5.928;2024-01-15T00:20:49;100159.56;;;3.54;85.28
66945;BME280;53853;51.982;5.928;2024-01-15T00:23:19;100149.13;;;3.53;85.26
66945;BME280;53853;51.982;5.928;2024-01-15T00:25:50;100153.59;;;3.52;85.36
66945;BME280;53853;51.982;5.928;2024-01-15T00:28:20;100158.09;;;3.50;85.38
66945;BME280;53853;51.982;5.928;2024-01-15T00:30:50;100152.25;;;3.47;84.97
66945;BME280;53853;51.982;5.928;2024-01-15T00:33:20;100156.69;;;3.46;85.46
66945;BME280;53853;51.982;5.928;2024-01-15T00:35:52;100154.41;;;3.41;85.61
66945;BME280;53853;51.982;5.928;2024-01-15T00:38:22;100137.88;;;3.39;85.71
66945;BME280;53853;51.982;5.928;2024-01-15T00:40:52;100137.16;;;3.37;85.62
66945;BME280;53853;51.982;5.928;2024-01-15T00:43:22;100130.38;;;3.35;85.57
66945;BME280;53853;51.982;5.928;2024-01-15T00:45:52;100127.00;;;3.33;85.76
66945;BME280;53853;51.982;5.928;2024-01-15T00:48:22;100143.03;;;3.30;85.88
66945;BME280;53853;51.982;5.928;2024-01-15T00:50:54;100134.53;;;3.26;85.88
66945;BME280;53853;51.982;5.928;2024-01-15T00:53:25;100126.06;;;3.22;85.76
66945;BME280;53853;51.982;5.928;2024-01-15T00:55:55;100131.31;;;3.22;85.92
66945;BME280;53853;51.982;5.928;2024-01-15T00:58:25;100125.19;;;3.22;85.92
66945;BME280;53853;51.982;5.928;2024-01-15T01:00:55;100126.28;;;3.19;86.06
66945;BME280;53853;51.982;5.928;2024-01-15T01:03:25;100123.91;;;3.16;85.67
66945;BME280;53853;51.982;5.928;2024-01-15T01:05:57;100119.09;;;3.10;85.71
66945;BME280;53853;51.982;5.928;2024-01-15T01:08:27;100120.28;;;3.06;85.98
66945;BME280;53853;51.982;5.928;2024-01-15T01:10:57;100112.63;;;3.03;85.92
66945;BME280;53853;51.982;5.928;2024-01-15T01:13:27;100104.72;;;3.03;86.03
66945;BME280;53853;51.982;5.928;2024-01-15T01:15:57;100100.31;;;3.03;86.02
66945;BME280;53853;51.982;5.928;2024-01-15T01:18:27;100107.63;;;3.00;85.92
66945;BME280;53853;51.982;5.928;2024-01-15T01:20:59;100093.97;;;2.95;85.93
66945;BME280;53853;51.982;5.928;2024-01-15T01:23:29;100087.28;;;2.90;86.11
66945;BME280;53853;51.982;5.928;2024-01-15T01:25:59;100089.91;;;2.90;85.94
66945;BME280;53853;51.982;5.928;2024-01-15T01:28:29;100086.66;;;2.87;85.71
66945;BME280;53853;51.982;5.928;2024-01-15T01:30:59;100095.66;;;2.84;85.92
66945;BME280;53853;51.982;5.928;2024-01-15T01:33:29;100093.13;;;2.83;86.12
66945;BME280;53853;51.982;5.928;2024-01-15T01:36:06;100094.09;;;2.82;86.20
66945;BME280;53853;51.982;5.928;2024-01-15T01:38:36;100101.28;;;2.80;86.11
66945;BME280;53853;51.982;5.928;2024-01-15T01:41:06;100100.56;;;2.78;86.02
66945;BME280;53853;51.982;5.928;2024-01-15T01:43:36;100106.88;;;2.75;86.25
66945;BME280;53853;51.982;5.928;2024-01-15T01:46:06;100105.81;;;2.78;86.34
66945;BME280;53853;51.982;5.928;2024-01-15T01:48:37;100100.69;;;2.76;86.53
66945;BME280;53853;51.982;5.928;2024-01-15T01:51:10;100110.34;;;2.76;86.76
66945;BME280;53853;51.982;5.928;2024-01-15T01:53:40;100108.56;;;2.76;86.73
66945;BME280;53853;51.982;5.928;2024-01-15T01:56:11;100109.50;;;2.75;86.85
66945;BME280;53853;51.982;5.928;2024-01-15T01:58:41;100107.00;;;2.74;86.84
66945;BME280;53853;51.982;5.928;2024-01-15T02:01:12;100112.25;;;2.74;86.84
66945;BME280;53853;51.982;5.928;2024-01-15T02:03:42;100105.94;;;2.76;86.92
66945;BME280;53853;51.982;5.928;2024-01-15T02:06:15;100100.91;;;2.73;86.82
66945;BME280;53853;51.982;5.928;2024-01-15T02:08:45;100102.78;;;2.71;87.00
66945;BME280;53853;51.982;5.928;2024-01-15T02:11:15;100096.72;;;2.70;86.67
66945;BME280;53853;51.982;5.928;2024-01-15T02:13:44;100098.41;;;2.71;86.56
66945;BME280;53853;51.982;5.928;2024-01-15T02:16:14;100093.13;;;2.71;86.79
66945;BME280;53853;51.982;5.928;2024-01-15T02:18:45;100096.81;;;2.69;86.22
66945;BME280;53853;51.982;5.928;2024-01-15T02:21:18;100097.78;;;2.68;86.37
66945;BME280;53853;51.982;5.928;2024-01-15T02:23:51;100099.69;;;2.66;86.62
66945;BME280;53853;51.982;5.928;2024-01-15T02:26:21;100090.09;;;2.65;86.65
66945;BME280;53853;51.982;5.928;2024-01-15T02:28:51;100097.06;;;2.66;86.80
66945;BME280;53853;51.982;5.928;2024-01-15T02:31:21;100095.25;;;2.66;86.73
66945;BME280;53853;51.982;5.928;2024-01-15T02:33:51;100096.94;;;2.67;86.85
66945;BME280;53853;51.982;5.928;2024-01-15T02:36:21;100095.25;;;2.66;86.57
66945;BME280;53853;51.982;5.928;2024-01-15T02:38:53;100102.44;;;2.64;86.85
66945;BME280;53853;51.982;5.928;2024-01-15T02:41:23;100100.78;;;2.63;86.88
66945;BME280;53853;51.982;5.928;2024-01-15T02:43:53;100090.25;;;2.63;87.07
66945;BME280;53853;51.982;5.928;2024-01-15T02:46:23;100117.16;;;2.67;87.31
66945;BME280;53853;51.982;5.928;2024-01-15T02:48:52;100129.72;;;2.75;87.46
66945;BME280;53853;51.982;5.928;2024-01-15T02:51:22;100118.75;;;2.81;87.64
66945;BME280;53853;51.982;5.928;2024-01-15T02:53:55;100121.84;;;2.86;87.49
66945;BME280;53853;51.982;5.928;2024-01-15T02:56:25;100112.03;;;2.88;87.04
66945;BME280;53853;51.982;5.928;2024-01-15T02:58:55;100113.59;;;2.90;87.07
66945;BME280;53853;51.982;5.928;2024-01-15T03:01:24;100117.91;;;2.92;86.49
66945;BME280;53853;51.982;5.928;2024-01-15T03:03:54;100109.53;;;2.86;86.70
66945;BME280;53853;51.982;5.928;2024-01-15T03:06:24;100101.63;;;2.86;87.25
66945;BME280;53853;51.982;5.928;2024-01-15T03:08:57;100109.41;;;2.88;87.11
66945;BME280;53853;51.982;5.928;2024-01-15T03:11:27;100107.84;;;2.85;87.03
66945;BME280;53853;51.982;5.928;2024-01-15T03:13:57;100093.84;;;2.85;87.18
66945;BME280;53853;51.982;5.928;2024-01-15T03:16:26;100095.78;;;2.83;87.26
66945;BME280;53853;51.982;5.928;2024-01-15T03:18:56;100098.53;;;2.81;87.23
66945;BME280;53853;51.982;5.928;2024-01-15T03:21:26;100095.06;;;2.81;87.21
66945;BME280;53853;51.982;5.928;2024-01-15T03:23:58;100102.97;;;2.81;86.85
66945;BME280;53853;51.982;5.928;2024-01-15T03:26:28;100099.00;;;2.75;86.97
66945;BME280;53853;51.982;5.928;2024-01-15T03:28:58;100101.84;;;2.72;86.85
66945;BME280;53853;51.982;5.928;2024-01-15T03:31:28;100098.41;;;2.71;87.15
66945;BME280;53853;51.982;5.928;2024-01-15T03:33:58;100093.13;;;2.71;87.10
66945;BME280;53853;51.982;5.928;2024-01-15T03:36:28;100096.72;;;2.70;87.06
66945;BME280;53853;51.982;5.928;2024-01-15T03:39:00;100090.72;;;2.68;86.95
66945;BME280;53853;51.982;5.928;2024-01-15T03:41:30;100088.22;;;2.67;87.38
66945;BME280;53853;51.982;5.928;2024-01-15T03:44:00;100087.25;;;2.68;87.34
66945;BME280;53853;51.982;5.928;2024-01-15T03:46:30;100086.41;;;2.67;87.36
66945;BME280;53853;51.982;5.928;2024-01-15T03:49:00;100075.06;;;2.67;87.53
66945;BME280;53853;51.982;5.928;2024-01-15T03:51:30;100081.28;;;2.66;87.42
66945;BME280;53853;51.982;5.928;2024-01-15T03:54:02;100087.13;;;2.69;87.43
66945;BME280;53853;51.982;5.928;2024-01-15T03:56:32;100087.00;;;2.71;87.46
66945;BME280;53853;51.982;5.928;2024-01-15T03:59:02;100091.91;;;2.76;87.92
66945;BME280;53853;51.982;5.928;2024-01-15T04:01:32;100091.34;;;2.83;87.64
66945;BME280;53853;51.982;5.928;2024-01-15T04:04:02;100090.88;;;2.89;87.68
66945;BME280;53853;51.982;5.928;2024-01-15T04:06:32;100080.09;;;2.93;87.32
66945;BME280;53853;51.982;5.928;2024-01-15T04:09:04;100086.69;;;2.98;87.50
66945;BME280;53853;51.982;5.928;2024-01-15T04:11:34;100077.47;;;3.04;87.75
66945;BME280;53853;51.982;5.928;2024-01-15T04:14:04;100073.53;;;3.10;88.21
66945;BME280;53853;51.982;5.928;2024-01-15T04:16:34;100067.03;;;3.14;88.32
66945;BME280;53853;51.982;5.928;2024-01-15T04:19:04;100072.31;;;3.14;87.39
66945;BME280;53853;51.982;5.928;2024-01-15T04:21:34;100072.44;;;3.12;87.79
66945;BME280;53853;51.982;5.928;2024-01-15T04:24:07;100062.13;;;3.09;87.70
66945;BME280;53853;51.982;5.928;2024-01-15T04:26:37;100052.94;;;3.03;87.67
66945;BME280;53853;51.982;5.928;2024-01-15T04:29:06;100052.94;;;3.03;87.91
66945;BME280;53853;51.982;5.928;2024-01-15T04:31:36;100047.09;;;3.00;87.87
66945;BME280;53853;51.982;5.928;2024-01-15T04:34:06;100035.59;;;3.01;88.05
66945;BME280;53853;51.982;5.928;2024-01-15T04:36:39;100041.94;;;2.98;87.90
66945;BME280;53853;51.982;5.928;2024-01-15T04:39:12;100051.88;;;2.95;87.74
66945;BME280;53853;51.982;5.928;2024-01-15T04:41:42;100043.50;;;2.89;87.58
66945;BME280;53853;51.982;5.928;2024-01-15T04:44:12;100040.41;;;2.84;87.51
66945;BME280;53853;51.982;5.928;2024-01-15T04:46:42;100030.34;;;2.78;87.38
66945;BME280;53853;51.982;5.928;2024-01-15T04:49:12;100037.75;;;2.73;87.23
66945;BME280;53853;51.982;5.928;2024-01-15T04:51:42;100037.25;;;2.68;86.97
66945;BME280;53853;51.982;5.928;2024-01-15T04:54:14;100040.28;;;2.63;86.73
66945;BME280;53853;51.982;5.928;2024-01-15T04:56:45;100033.69;;;2.58;86.23
66945;BME280;53853;51.982;5.928;2024-01-15T04:59:15;100035.59;;;2.56;86.42
66945;BME280;53853;51.982;5.928;2024-01-15T05:01:45;100031.41;;;2.53;86.77
66945;BME280;53853;51.982;5.928;2024-01-15T05:04:15;100029.84;;;2.50;86.86
66945;BME280;53853;51.982;5.928;2024-01-15T05:06:45;100026.50;;;2.48;87.05
66945;BME280;53853;51.982;5.928;2024-01-15T05:09:18;100023.03;;;2.48;87.31
66945;BME280;53853;51.982;5.928;2024-01-15T05:11:48;100020.41;;;2.48;87.48
66945;BME280;53853;51.982;5.928;2024-01-15T05:14:17;100013.34;;;2.48;87.66
66945;BME280;53853;51.982;5.928;2024-01-15T05:16:47;100009.88;;;2.48;87.60
66945;BME280;53853;51.982;5.928;2024-01-15T05:19:18;100011.53;;;2.49;87.40
66945;BME280;53853;51.982;5.928;2024-01-15T05:21:48;100006.41;;;2.47;87.02
66945;BME280;53853;51.982;5.928;2024-01-15T05:24:21;100006.66;;;2.44;87.18
66945;BME280;53853;51.982;5.928;2024-01-15T05:26:53;100010.00;;;2.46;87.16
66945;BME280;53853;51.982;5.928;2024-01-15T05:29:23;100002.81;;;2.48;87.19
66945;BME280;53853;51.982;5.928;2024-01-15T05:31:53;100005.22;;;2.51;87.16
66945;BME280;53853;51.982;5.928;2024-01-15T05:34:23;100003.53;;;2.50;86.88
66945;BME280;53853;51.982;5.928;2024-01-15T05:36:53;100002.59;;;2.51;86.44
66945;BME280;53853;51.982;5.928;2024-01-15T05:39:25;100006.16;;;2.50;86.57
66945;BME280;53853;51.982;5.928;2024-01-15T05:41:55;100010.38;;;2.53;86.32
66945;BME280;53853;51.982;5.928;2024-01-15T05:44:25;100010.25;;;2.54;86.65
66945;BME280;53853;51.982;5.928;2024-01-15T05:46:55;100002.13;;;2.58;87.20
66945;BME280;53853;51.982;5.928;2024-01-15T05:49:25;99994.69;;;2.63;86.76
66945;BME280;53853;51.982;5.928;2024-01-15T05:51:55;100002.34;;;2.66;87.04
66945;BME280;53853;51.982;5.928;2024-01-15T05:54:28;100004.88;;;2.67;86.71
66945;BME280;53853;51.982;5.928;2024-01-15T05:56:58;100009.31;;;2.67;86.69
66945;BME280;53853;51.982;5.928;2024-01-15T05:59:28;100001.66;;;2.64;86.35
66945;BME280;53853;51.982;5.928;2024-01-15T06:02:01;100001.66;;;2.64;86.48
66945;BME280;53853;51.982;5.928;2024-01-15T06:04:30;99999.72;;;2.66;87.11
66945;BME280;53853;51.982;5.928;2024-01-15T06:07:00;100003.56;;;2.73;87.34
66945;BME280;53853;51.982;5.928;2024-01-15T06:09:33;100003.56;;;2.73;87.28
66945;BME280;53853;51.982;5.928;2024-01-15T06:12:03;100016.47;;;2.76;86.86
66945;BME280;53853;51.982;5.928;2024-01-15T06:14:33;100017.91;;;2.80;87.31
66945;BME280;53853;51.982;5.928;2024-01-15T06:17:03;100016.59;;;2.86;87.63
66945;BME280;53853;51.982;5.928;2024-01-15T06:19:33;100010.22;;;2.88;87.83
66945;BME280;53853;51.982;5.928;2024-01-15T06:22:03;100009.88;;;2.93;87.29
66945;BME280;53853;51.982;5.928;2024-01-15T06:24:36;100008.34;;;2.90;86.66
66945;BME280;53853;51.982;5.928;2024-01-15T06:27:05;100016.34;;;2.89;86.80
66945;BME280;53853;51.982;5.928;2024-01-15T06:29:38;100015.25;;;2.92;87.26
66945;BME280;53853;51.982;5.928;2024-01-15T06:32:08;100016.69;;;2.96;87.67
66945;BME280;53853;51.982;5.928;2024-01-15T06:34:38;100015.50;;;3.00;87.13
66945;BME280;53853;51.982;5.928;2024-01-15T06:37:07;100009.50;;;2.98;87.14
66945;BME280;53853;51.982;5.928;2024-01-15T06:39:40;100017.16;;;3.01;87.13
66945;BME280;53853;51.982;5.928;2024-01-15T06:42:10;100018.97;;;3.00;86.93
66945;BME280;53853;51.982;5.928;2024-01-15T06:44:40;100022.44;;;3.01;87.17
66945;BME280;53853;51.982;5.928;2024-01-15T06:47:10;100018.00;;;3.01;87.42
66945;BME280;53853;51.982;5.928;2024-01-15T06:49:41;100013.00;;;2.98;87.29
66945;BME280;53853;51.982;5.928;2024-01-15T06:52:11;100027.34;;;2.94;87.61
66945;BME280;53853;51.982;5.928;2024-01-15T06:54:43;100024.13;;;2.90;87.74
66945;BME280;53853;51.982;5.928;2024-01-15T06:57:14;100017.31;;;2.88;87.97
66945;BME280;53853;51.982;5.928;2024-01-15T06:59:46;100013.84;;;2.87;88.36
66945;BME280;53853;51.982;5.928;2024-01-15T07:02:16;100012.88;;;2.88;88.50
66945;BME280;53853;51.982;5.928;2024-01-15T07:04:46;100005.09;;;2.87;88.29
66945;BME280;53853;51.982;5.928;2024-01-15T07:07:16;100004.50;;;2.83;88.27
66945;BME280;53853;51.982;5.928;2024-01-15T07:09:49;100008.22;;;2.81;88.20
66945;BME280;53853;51.982;5.928;2024-01-15T07:12:19;100004.84;;;2.79;88.27
66945;BME280;53853;51.982;5.928;2024-01-15T07:14:49;99999.72;;;2.77;87.94
66945;BME280;53853;51.982;5.928;2024-01-15T07:17:19;99998.66;;;2.80;88.51
66945;BME280;53853;51.982;5.928;2024-01-15T07:19:49;99994.91;;;2.82;88.07
66945;BME280;53853;51.982;5.928;2024-01-15T07:22:19;99998.53;;;2.81;87.89
66945;BME280;53853;51.982;5.928;2024-01-15T07:24:51;99999.72;;;2.77;87.69
66945;BME280;53853;51.982;5.928;2024-01-15T07:27:21;99995.66;;;2.73;86.72
66945;BME280;53853;51.982;5.928;2024-01-15T07:29:51;100002.00;;;2.70;87.02
66945;BME280;53853;51.982;5.928;2024-01-15T07:32:21;100006.91;;;2.64;86.76
66945;BME280;53853;51.982;5.928;2024-01-15T07:34:51;100001.66;;;2.64;87.30
66945;BME280;53853;51.982;5.928;2024-01-15T07:37:20;99998.78;;;2.67;87.53
66945;BME280;53853;51.982;5.928;2024-01-15T07:39:53;100002.13;;;2.69;87.73
66945;BME280;53853;51.982;5.928;2024-01-15T07:42:23;100002.81;;;2.71;87.93
66945;BME280;53853;51.982;5.928;2024-01-15T07:44:53;99998.53;;;2.70;87.94
66945;BME280;53853;51.982;5.928;2024-01-15T07:47:23;100003.81;;;2.70;87.62
66945;BME280;53853;51.982;5.928;2024-01-15T07:49:53;100009.06;;;2.70;87.77
66945;BME280;53853;51.982;5.928;2024-01-15T07:52:23;100003.81;;;2.70;87.83
66945;BME280;53853;51.982;5.928;2024-01-15T07:54:55;100010.72;;;2.71;88.20
66945;BME280;53853;51.982;5.928;2024-01-15T07:57:26;100023.63;;;2.74;88.43
66945;BME280;53853;51.982;5.928;2024-01-15T07:59:56;100023.50;;;2.76;88.50
66945;BME280;53853;51.982;5.928;2024-01-15T08:02:26;100025.19;;;2.77;88.60
66945;BME280;53853;51.982;5.928;2024-01-15T08:04:56;100038.34;;;2.77;88.44
66945;BME280;53853;51.982;5.928;2024-01-15T08:07:26;100017.66;;;2.72;88.11
66945;BME280;53853;51.982;5.928;2024-01-15T08:09:58;100016.09;;;2.69;88.05
66945;BME280;53853;51.982;5.928;2024-01-15T08:12:28;100010.25;;;2.66;88.20
66945;BME280;53853;51.982;5.928;2024-01-15T08:14:58;100010.94;;;2.68;88.65
66945;BME280;53853;51.982;5.928;2024-01-15T08:17:28;100005.69;;;2.68;88.41
66945;BME280;53853;51.982;5.928;2024-01-15T08:19:59;100013.34;;;2.71;88.76
66945;BME280;53853;51.982;5.928;2024-01-15T08:22:31;100020.28;;;2.72;88.97
66945;BME280;53853;51.982;5.928;2024-01-15T08:25:04;100014.91;;;2.74;89.03
66945;BME280;53853;51.982;5.928;2024-01-15T08:27:34;100015.50;;;2.77;88.94
66945;BME280;53853;51.982;5.928;2024-01-15T08:30:09;100008.47;;;2.78;89.00
66945;BME280;53853;51.982;5.928;2024-01-15T08:32:39;100017.91;;;2.80;89.09
66945;BME280;53853;51.982;5.928;2024-01-15T08:35:09;100008.22;;;2.81;88.79
66945;BME280;53853;51.982;5.928;2024-01-15T08:37:39;100003.69;;;2.83;88.93
66945;BME280;53853;51.982;5.928;2024-01-15T08:40:12;100002.56;;;2.85;89.10
66945;BME280;53853;51.982;5.928;2024-01-15T08:42:42;100007.00;;;2.85;89.02
66945;BME280;53853;51.982;5.928;2024-01-15T08:45:13;100002.34;;;2.88;89.20
66945;BME280;53853;51.982;5.928;2024-01-15T08:47:43;100001.28;;;2.91;88.98
66945;BME280;53853;51.982;5.928;2024-01-15T08:50:13;100005.47;;;2.94;88.72
66945;BME280;53853;51.982;5.928;2024-01-15T08:52:43;100003.78;;;2.93;88.50
66945;BME280;53853;51.982;5.928;2024-01-15T08:55:15;100022.31;;;2.91;88.48
66945;BME280;53853;51.982;5.928;2024-01-15T08:57:45;100020.53;;;2.92;88.57
66945;BME280;53853;51.982;5.928;2024-01-15T09:00:16;100020.41;;;2.93;88.13
66945;BME280;53853;51.982;5.928;2024-01-15T09:02:46;100034.66;;;2.90;87.69
66945;BME280;53853;51.982;5.928;2024-01-15T09:05:16;100039.81;;;2.92;88.21
66945;BME280;53853;51.982;5.928;2024-01-15T09:07:46;100043.25;;;2.93;87.69
66945;BME280;53853;51.982;5.928;2024-01-15T09:10:21;100033.91;;;2.88;87.39
66945;BME280;53853;51.982;5.928;2024-01-15T09:12:51;100029.00;;;2.84;87.49
66945;BME280;53853;51.982;5.928;2024-01-15T09:15:21;100020.28;;;2.83;87.79
66945;BME280;53853;51.982;5.928;2024-01-15T09:17:51;100032.38;;;2.86;88.09
66945;BME280;53853;51.982;5.928;2024-01-15T09:20:21;100026.88;;;2.89;88.46
66945;BME280;53853;51.982;5.928;2024-01-15T09:22:50;100030.22;;;2.91;88.48
66945;BME280;53853;51.982;5.928;2024-01-15T09:25:23;100035.38;;;2.93;88.43
66945;BME280;53853;51.982;5.928;2024-01-15T09:27:53;100040.50;;;2.94;88.38
66945;BME280;53853;51.982;5.928;2024-01-15T09:30:23;100044.72;;;2.97;88.53
66945;BME280;53853;51.982;5.928;2024-01-15T09:32:52;100034.75;;;3.00;88.49
66945;BME280;53853;51.982;5.928;2024-01-15T09:35:22;100038.69;;;3.06;88.54
66945;BME280;53853;51.982;5.928;2024-01-15T09:37:52;100031.66;;;3.06;88.15
66945;BME280;53853;51.982;5.928;2024-01-15T09:40:26;100034.03;;;3.10;87.79
66945;BME280;53853;51.982;5.928;2024-01-15T09:43:01;100024.09;;;3.13;88.44
66945;BME280;53853;51.982;5.928;2024-01-15T09:45:32;100026.38;;;3.18;88.17
66945;BME280;53853;51.982;5.928;2024-01-15T09:48:02;100022.50;;;3.22;87.92
66945;BME280;53853;51.982;5.928;2024-01-15T09:50:32;100017.84;;;3.25;87.86
66945;BME280;53853;51.982;5.928;2024-01-15T09:53:02;100020.25;;;3.29;86.77
66945;BME280;53853;51.982;5.928;2024-01-15T09:55:35;100017.38;;;3.32;87.20
66945;BME280;53853;51.982;5.928;2024-01-15T09:58:05;100017.00;;;3.36;87.40
66945;BME280;53853;51.982;5.928;2024-01-15T10:00:36;100025.59;;;3.38;87.60
66945;BME280;53853;51.982;5.928;2024-01-15T10:03:09;100024.50;;;3.41;87.78
66945;BME280;53853;51.982;5.928;2024-01-15T10:05:39;100028.25;;;3.38;87.25
66945;BME280;53853;51.982;5.928;2024-01-15T10:08:10;100033.16;;;3.32;86.51
66945;BME280;53853;51.982;5.928;2024-01-15T10:10:43;100033.41;;;3.29;86.62
66945;BME280;53853;51.982;5.928;2024-01-15T10:13:13;100040.69;;;3.25;85.74
66945;BME280;53853;51.982;5.928;2024-01-15T10:15:46;100037.34;;;3.23;85.61
66945;BME280;53853;51.982;5.928;2024-01-15T10:18:16;100026.00;;;3.22;86.12
66945;BME280;53853;51.982;5.928;2024-01-15T10:20:46;100034.84;;;3.21;85.16
66945;BME280;53853;51.982;5.928;2024-01-15T10:23:16;100024.06;;;3.24;85.14
66945;BME280;53853;51.982;5.928;2024-01-15T10:25:49;100029.19;;;3.37;85.55
66945;BME280;53853;51.982;5.928;2024-01-15T10:28:19;100035.97;;;3.51;85.72
66945;BME280;53853;51.982;5.928;2024-01-15T10:30:53;100036.19;;;3.59;85.43
66945;BME280;53853;51.982;5.928;2024-01-15T10:33:24;100027.34;;;3.60;85.32
66945;BME280;53853;51.982;5.928;2024-01-15T10:35:55;100032.28;;;3.54;83.36
66945;BME280;53853;51.982;5.928;2024-01-15T10:38:25;100032.16;;;3.44;82.90
66945;BME280;53853;51.982;5.928;2024-01-15T10:40:57;100045.69;;;3.39;83.11
66945;BME280;53853;51.982;5.928;2024-01-15T10:43:27;100036.03;;;3.29;82.88
66945;BME280;53853;51.982;5.928;2024-01-15T10:45:57;100028.75;;;3.21;83.33
66945;BME280;53853;51.982;5.928;2024-01-15T10:48:28;100027.19;;;3.18;83.81
66945;BME280;53853;51.982;5.928;2024-01-15T10:50:58;100023.03;;;3.16;84.00
66945;BME280;53853;51.982;5.928;2024-01-15T10:53:31;100031.03;;;3.14;84.23
66945;BME280;53853;51.982;5.928;2024-01-15T10:56:05;100023.63;;;3.19;84.99
66945;BME280;53853;51.982;5.928;2024-01-15T10:58:35;100031.16;;;3.24;84.67
66945;BME280;53853;51.982;5.928;2024-01-15T11:01:06;100028.16;;;3.29;84.74
66945;BME280;53853;51.982;5.928;2024-01-15T11:03:37;100036.50;;;3.34;84.81
66945;BME280;53853;51.982;5.928;2024-01-15T11:06:16;100025.72;;;3.37;85.11
66945;BME280;53853;51.982;5.928;2024-01-15T11:08:49;100018.66;;;3.37;84.65
66945;BME280;53853;51.982;5.928;2024-01-15T11:11:22;100032.06;;;3.34;84.74
66945;BME280;53853;51.982;5.928;2024-01-15T11:13:51;100024.28;;;3.33;84.68
66945;BME280;53853;51.982;5.928;2024-01-15T11:16:23;100026.59;;;3.26;84.35
66945;BME280;53853;51.982;5.928;2024-01-15T11:19:03;100029.47;;;3.23;84.50
66945;BME280;53853;51.982;5.928;2024-01-15T11:21:42;100028.88;;;3.19;84.47
66945;BME280;53853;51.982;5.928;2024-01-15T11:24:36;100036.53;;;3.22;85.13
66945;BME280;53853;51.982;5.928;2024-01-15T11:27:09;100036.75;;;3.31;85.13
66945;BME280;53853;51.982;5.928;2024-01-15T11:29:39;100046.78;;;3.37;85.41
66945;BME280;53853;51.982;5.928;2024-01-15T11:32:09;100043.47;;;3.35;84.81
66945;BME280;53853;51.982;5.928;2024-01-15T11:34:54;100037.69;;;3.30;84.39
66945;BME280;53853;51.982;5.928;2024-01-15T11:37:22;100040.09;;;3.33;85.01
66945;BME280;53853;51.982;5.928;2024-01-15T11:39:54;100042.13;;;3.40;85.39
66945;BME280;53853;51.982;5.928;2024-01-15T11:42:26;100036.72;;;3.42;85.27
66945;BME280;53853;51.982;5.928;2024-01-15T11:44:57;100041.63;;;3.47;85.45
66945;BME280;53853;51.982;5.928;2024-01-15T11:50:43;100043.06;;;3.51;84.50
66945;BME280;53853;51.982;5.928;2024-01-15T11:53:33;100038.75;;;3.50;84.54
66945;BME280;53853;51.982;5.928;2024-01-15T11:56:11;100038.50;;;3.53;84.81
66945;BME280;53853;51.982;5.928;2024-01-15T11:58:46;100036.69;;;3.53;85.38
66945;BME280;53853;51.982;5.928;2024-01-15T12:01:17;100035.63;;;3.56;85.33
66945;BME280;53853;51.982;5.928;2024-01-15T12:03:48;100035.50;;;3.57;85.22
66945;BME280;53853;51.982;5.928;2024-01-15T12:06:18;100035.38;;;3.59;84.45
66945;BME280;53853;51.982;5.928;2024-01-15T12:08:50;100038.13;;;3.57;84.44
66945;BME280;53853;51.982;5.928;2024-01-15T12:11:21;100034.25;;;3.61;84.97
66945;BME280;53853;51.982;5.928;2024-01-15T12:13:56;100034.00;;;3.65;84.96
66945;BME280;53853;51.982;5.928;2024-01-15T12:16:26;100042.66;;;3.67;84.58
66945;BME280;53853;51.982;5.928;2024-01-15T12:18:56;100030.88;;;3.71;84.73
66945;BME280;53853;51.982;5.928;2024-01-15T12:21:27;100035.53;;;3.78;84.81
66945;BME280;53853;51.982;5.928;2024-01-15T12:23:57;100043.06;;;3.83;83.31
66945;BME280;53853;51.982;5.928;2024-01-15T12:26:27;100037.78;;;3.83;82.80
66945;BME280;53853;51.982;5.928;2024-01-15T12:29:01;100051.09;;;3.81;82.85
66945;BME280;53853;51.982;5.928;2024-01-15T12:31:31;100058.94;;;3.93;83.81
66945;BME280;53853;51.982;5.928;2024-01-15T12:34:02;100066.19;;;4.12;84.65
66945;BME280;53853;51.982;5.928;2024-01-15T12:36:32;100075.13;;;4.21;83.87
66945;BME280;53853;51.982;5.928;2024-01-15T12:39:02;100081.44;;;4.29;84.12
66945;BME280;53853;51.982;5.928;2024-01-15T12:41:32;100086.06;;;4.37;84.43
66945;BME280;53853;51.982;5.928;2024-01-15T12:44:05;100090.25;;;4.40;84.88
66945;BME280;53853;51.982;5.928;2024-01-15T12:46:35;100105.50;;;4.36;84.64
66945;BME280;53853;51.982;5.928;2024-01-15T12:49:05;100106.84;;;4.30;83.71
66945;BME280;53853;51.982;5.928;2024-01-15T12:51:35;100105.94;;;4.20;83.26
66945;BME280;53853;51.982;5.928;2024-01-15T12:54:05;100099.94;;;4.18;84.02
66945;BME280;53853;51.982;5.928;2024-01-15T12:56:35;100080.78;;;4.16;83.69
66945;BME280;53853;51.982;5.928;2024-01-15T12:59:08;100087.97;;;4.14;84.01
66945;BME280;53853;51.982;5.928;2024-01-15T13:01:38;100082.00;;;4.12;84.73
66945;BME280;53853;51.982;5.928;2024-01-15T13:04:08;100085.63;;;4.11;85.13
66945;BME280;53853;51.982;5.928;2024-01-15T13:06:38;100079.59;;;4.09;84.90
66945;BME280;53853;51.982;5.928;2024-01-15T13:09:08;100102.25;;;4.11;84.70
66945;BME280;53853;51.982;5.928;2024-01-15T13:11:38;100095.75;;;4.15;85.13
66945;BME280;53853;51.982;5.928;2024-01-15T13:14:11;100094.44;;;4.21;83.57
66945;BME280;53853;51.982;5.928;2024-01-15T13:16:41;100096.81;;;4.24;83.18
66945;BME280;53853;51.982;5.928;2024-01-15T13:19:11;100095.13;;;4.23;82.20
66945;BME280;53853;51.982;5.928;2024-01-15T13:21:41;100094.94;;;4.15;80.81